createdAt,value
2019-06-15T00:00:51.094Z,99.90
2019-06-15T00:03:20.879Z,99.90
2019-06-15T00:05:50.648Z,99.90
2019-06-15T00:08:20.471Z,99.90
2019-06-15T00:10:50.200Z,99.90
2019-06-15T00:13:22.857Z,99.90
2019-06-15T00:15:53.209Z,99.90
2019-06-15T00:18:24.622Z,99.90
2019-06-15T00:20:54.328Z,99.90
2019-06-15T00:23:24.028Z,99.90
2019-06-15T00:25:54.833Z,99.90
2019-06-15T00:28:24.598Z,99.90
2019-06-15T00:30:54.324Z,99.90
2019-06-15T00:33:24.037Z,99.90
2019-06-15T00:35:54.820Z,99.90
2019-06-15T00:38:24.594Z,99.90
2019-06-15T00:40:54.308Z,99.90
2019-06-15T00:43:24.067Z,99.90
2019-06-15T00:45:53.775Z,99.90
2019-06-15T00:48:23.467Z,99.90
2019-06-15T00:50:53.188Z,99.90
2019-06-15T00:53:22.868Z,99.90
2019-06-15T00:55:52.711Z,99.90
2019-06-15T00:58:22.514Z,99.90
2019-06-15T01:00:52.201Z,99.90
2019-06-15T01:03:21.997Z,99.90
2019-06-15T01:05:51.807Z,99.90
2019-06-15T01:08:40.723Z,99.90
2019-06-15T01:11:10.435Z,99.90
2019-06-15T01:13:40.518Z,99.90
2019-06-15T01:16:10.316Z,99.90
2019-06-15T01:18:40.043Z,99.90
2019-06-15T01:21:09.895Z,99.90
2019-06-15T01:23:39.644Z,99.90
2019-06-15T01:26:09.670Z,99.90
2019-06-15T01:28:39.410Z,99.90
2019-06-15T01:31:09.139Z,99.90
2019-06-15T01:33:38.866Z,99.90
2019-06-15T01:36:08.742Z,99.90
2019-06-15T01:38:38.466Z,99.90
2019-06-15T01:41:08.211Z,99.90
2019-06-15T01:43:37.903Z,99.90
2019-06-15T01:46:07.664Z,99.90
2019-06-15T01:48:37.424Z,99.90
2019-06-15T01:51:07.251Z,99.90
2019-06-15T01:53:36.950Z,99.90
2019-06-15T01:56:06.661Z,99.90
2019-06-15T01:58:36.447Z,99.90
2019-06-15T02:01:06.319Z,99.90
2019-06-15T02:03:36.104Z,99.90
2019-06-15T02:06:05.991Z,99.90
2019-06-15T02:08:35.731Z,99.90
2019-06-15T02:11:05.561Z,99.90
2019-06-15T02:13:35.255Z,99.90
2019-06-15T02:16:05.288Z,99.90
2019-06-15T02:18:35.006Z,99.90
2019-06-15T02:21:04.832Z,99.90
2019-06-15T02:23:34.558Z,99.90
2019-06-15T02:26:04.477Z,99.90
2019-06-15T02:28:34.183Z,99.90
2019-06-15T02:31:04.310Z,99.90
2019-06-15T02:33:34.007Z,99.90
2019-06-15T02:36:03.839Z,99.90
2019-06-15T02:38:33.540Z,99.90
2019-06-15T02:41:03.303Z,99.90
2019-06-15T02:43:33.017Z,99.90
2019-06-15T02:46:02.964Z,99.90
2019-06-15T02:48:32.760Z,99.90
2019-06-15T02:51:02.717Z,99.90
2019-06-15T02:53:32.479Z,99.90
2019-06-15T02:56:02.265Z,99.90
2019-06-15T02:58:31.982Z,99.90
2019-06-15T03:01:06.155Z,99.90
2019-06-15T03:03:36.270Z,99.90
2019-06-15T03:06:06.555Z,99.90
2019-06-15T03:08:37.907Z,99.90
2019-06-15T03:11:07.670Z,99.90
2019-06-15T03:13:37.576Z,99.90
2019-06-15T03:16:07.334Z,99.90
2019-06-15T03:18:37.134Z,99.90
2019-06-15T03:21:06.813Z,99.90
2019-06-15T03:23:36.608Z,99.90
2019-06-15T03:26:06.515Z,99.90
2019-06-15T03:28:36.217Z,99.90
2019-06-15T03:31:05.927Z,99.90
2019-06-15T03:33:35.629Z,99.90
2019-06-15T03:36:05.516Z,99.90
2019-06-15T03:38:35.218Z,99.90
2019-06-15T03:41:05.004Z,99.90
2019-06-15T03:43:34.847Z,99.90
2019-06-15T03:46:04.714Z,99.90
2019-06-15T03:48:47.522Z,99.90
2019-06-15T03:51:17.248Z,99.90
2019-06-15T03:53:46.942Z,99.90
2019-06-15T03:56:21.516Z,99.90
2019-06-15T03:58:48.136Z,99.90
2019-06-15T04:01:27.103Z,99.90
2019-06-15T04:03:58.190Z,99.90
2019-06-15T04:06:27.886Z,99.90
2019-06-15T04:08:57.811Z,99.90
2019-06-15T04:11:27.583Z,99.90
2019-06-15T04:13:57.479Z,99.90
2019-06-15T04:16:27.255Z,99.90
2019-06-15T04:18:57.052Z,99.90
2019-06-15T04:21:33.027Z,99.90
2019-06-15T04:24:02.733Z,99.90
2019-06-15T04:26:36.319Z,99.90
2019-06-15T04:29:05.311Z,99.90
2019-06-15T04:31:35.301Z,99.90
2019-06-15T04:34:05.994Z,99.90
2019-06-15T04:36:41.016Z,99.90
2019-06-15T04:39:09.795Z,99.90
2019-06-15T04:41:39.574Z,99.90
2019-06-15T04:44:09.291Z,99.90
2019-06-15T04:46:38.996Z,99.90
2019-06-15T04:49:08.682Z,99.90
2019-06-15T04:51:40.165Z,99.90
2019-06-15T04:54:09.926Z,99.90
2019-06-15T04:56:50.503Z,99.90
2019-06-15T04:59:11.023Z,99.90
2019-06-15T05:01:40.727Z,99.90
2019-06-15T05:04:10.517Z,99.90
2019-06-15T05:06:40.279Z,99.90
2019-06-15T05:09:09.996Z,99.90
2019-06-15T05:11:39.704Z,99.90
2019-06-15T05:14:11.718Z,99.90
2019-06-15T05:16:41.408Z,99.90
2019-06-15T05:19:12.023Z,99.90
2019-06-15T05:21:41.805Z,99.90
2019-06-15T05:24:11.531Z,99.90
2019-06-15T05:26:41.250Z,99.90
2019-06-15T05:29:11.342Z,99.90
2019-06-15T05:31:41.145Z,99.90
2019-06-15T05:34:11.297Z,99.90
2019-06-15T05:36:41.008Z,99.90
2019-06-15T05:39:11.870Z,99.90
2019-06-15T05:41:41.588Z,99.90
2019-06-15T05:44:11.311Z,99.90
2019-06-15T05:46:41.111Z,99.90
2019-06-15T05:49:10.807Z,99.90
2019-06-15T05:51:42.263Z,99.90
2019-06-15T05:54:12.933Z,99.90
2019-06-15T05:56:42.728Z,99.90
2019-06-15T05:59:13.440Z,99.90
2019-06-15T06:01:43.483Z,99.90
2019-06-15T06:04:13.233Z,99.90
2019-06-15T06:06:42.927Z,99.90
2019-06-15T06:09:12.650Z,99.90
2019-06-15T06:11:42.370Z,99.90
2019-06-15T06:14:12.164Z,99.90
2019-06-15T06:16:41.881Z,99.90
2019-06-15T06:19:11.595Z,99.90
2019-06-15T06:21:41.511Z,99.90
2019-06-15T06:24:11.297Z,99.90
2019-06-15T06:26:40.984Z,99.90
2019-06-15T06:29:11.010Z,99.90
2019-06-15T06:31:40.812Z,99.90
2019-06-15T06:34:10.495Z,99.90
2019-06-15T06:36:40.523Z,99.90
2019-06-15T06:39:10.399Z,99.90
2019-06-15T06:41:41.719Z,99.90
2019-06-15T06:44:11.559Z,99.90
2019-06-15T06:46:41.318Z,99.90
2019-06-15T06:49:11.038Z,99.90
2019-06-15T06:51:41.958Z,99.90
2019-06-15T06:54:11.654Z,99.90
2019-06-15T06:56:42.287Z,99.90
2019-06-15T06:59:13.434Z,99.90
2019-06-15T07:01:43.180Z,99.90
2019-06-15T07:04:12.900Z,99.90
2019-06-15T07:06:42.592Z,99.90
2019-06-15T07:09:12.783Z,99.90
2019-06-15T07:11:43.379Z,99.90
2019-06-15T07:14:13.571Z,99.90
2019-06-15T07:16:44.442Z,99.90
2019-06-15T07:19:14.302Z,99.90
2019-06-15T07:21:44.070Z,99.90
2019-06-15T07:24:13.847Z,99.90
2019-06-15T07:26:43.547Z,99.90
2019-06-15T07:29:13.288Z,99.90
2019-06-15T07:31:43.043Z,99.90
2019-06-15T07:34:12.823Z,99.90
2019-06-15T07:36:42.540Z,99.90
2019-06-15T07:39:12.350Z,99.90
2019-06-15T07:41:43.259Z,99.90
2019-06-15T07:44:14.547Z,99.90
2019-06-15T07:46:45.411Z,99.90
2019-06-15T07:49:15.327Z,99.90
2019-06-15T07:51:45.075Z,99.90
2019-06-15T07:54:14.854Z,99.90
2019-06-15T07:56:44.656Z,99.90
2019-06-15T07:59:16.755Z,99.90
2019-06-15T08:01:46.464Z,99.90
2019-06-15T08:04:16.258Z,99.90
2019-06-15T08:06:46.020Z,99.90
2019-06-15T08:09:15.790Z,99.90
2019-06-15T08:11:45.971Z,99.90
2019-06-15T08:14:16.849Z,99.90
2019-06-15T08:16:47.719Z,99.90
2019-06-15T08:19:17.511Z,99.90
2019-06-15T08:21:48.236Z,99.90
2019-06-15T08:24:18.091Z,99.90
2019-06-15T08:26:47.966Z,99.90
2019-06-15T08:29:17.786Z,99.90
2019-06-15T08:31:48.471Z,99.90
2019-06-15T08:34:18.215Z,99.90
2019-06-15T08:36:48.432Z,99.90
2019-06-15T08:39:18.185Z,99.90
2019-06-15T08:41:48.207Z,99.90
2019-06-15T08:44:18.968Z,99.90
2019-06-15T08:46:48.694Z,99.90
2019-06-15T08:49:18.485Z,99.90
2019-06-15T08:51:48.472Z,99.90
2019-06-15T08:54:20.462Z,99.90
2019-06-15T08:56:50.314Z,99.90
2019-06-15T08:59:20.523Z,99.90
2019-06-15T09:01:50.344Z,99.90
2019-06-15T09:04:20.382Z,99.90
2019-06-15T09:06:50.363Z,99.90
2019-06-15T09:09:20.127Z,99.90
2019-06-15T09:11:49.840Z,99.90
2019-06-15T09:14:21.339Z,99.90
2019-06-15T09:16:51.165Z,99.90
2019-06-15T09:19:23.320Z,99.90
2019-06-15T09:21:53.111Z,99.90
2019-06-15T09:24:22.806Z,99.90
2019-06-15T09:26:52.519Z,99.90
2019-06-15T09:29:23.304Z,99.90
2019-06-15T09:31:57.332Z,99.90
2019-06-15T09:34:27.183Z,99.90
2019-06-15T09:36:56.876Z,99.90
2019-06-15T09:39:26.597Z,99.90
2019-06-15T09:41:56.366Z,99.90
2019-06-15T09:44:26.097Z,99.90
2019-06-15T09:46:55.796Z,99.90
2019-06-15T09:49:25.582Z,99.90
2019-06-15T09:51:56.212Z,99.90
2019-06-15T09:54:27.990Z,99.90
2019-06-15T09:56:57.827Z,99.90
2019-06-15T09:59:27.603Z,99.90
2019-06-15T10:01:57.420Z,99.90
2019-06-15T10:04:27.295Z,99.90
2019-06-15T10:06:57.338Z,99.90
2019-06-15T10:09:27.202Z,99.90
2019-06-15T10:11:57.030Z,99.90
2019-06-15T10:14:26.907Z,99.90
2019-06-15T10:16:56.675Z,99.90
2019-06-15T10:19:26.363Z,99.90
2019-06-15T10:21:58.442Z,99.90
2019-06-15T10:24:28.183Z,99.90
2019-06-15T10:26:57.997Z,99.90
2019-06-15T10:29:41.146Z,99.90
2019-06-15T10:31:59.321Z,99.90
2019-06-15T10:34:29.179Z,99.90
2019-06-15T10:36:59.044Z,99.90
2019-06-15T10:39:28.785Z,99.90
2019-06-15T10:41:58.592Z,99.90
2019-06-15T10:44:28.387Z,99.90
2019-06-15T10:46:58.114Z,99.90
2019-06-15T10:49:27.862Z,99.90
2019-06-15T10:51:57.597Z,99.90
2019-06-15T10:54:27.403Z,99.90
2019-06-15T10:56:57.286Z,99.90
2019-06-15T10:59:30.247Z,99.90
2019-06-15T11:02:00.046Z,99.90
2019-06-15T11:04:29.756Z,99.90
2019-06-15T11:06:59.758Z,99.90
2019-06-15T11:09:29.528Z,99.90
2019-06-15T11:11:59.441Z,99.90
2019-06-15T11:14:29.219Z,99.90
2019-06-15T11:17:00.610Z,99.90
2019-06-15T11:19:30.329Z,99.90
2019-06-15T11:22:00.195Z,99.90
2019-06-15T11:24:29.975Z,99.90
2019-06-15T11:26:59.823Z,99.90
2019-06-15T11:29:29.519Z,99.90
2019-06-15T11:31:59.259Z,99.90
2019-06-15T11:34:28.944Z,99.90
2019-06-15T11:36:58.718Z,99.90
2019-06-15T11:39:29.522Z,99.90
2019-06-15T11:41:59.313Z,99.90
2019-06-15T11:44:29.159Z,99.90
2019-06-15T11:46:58.879Z,99.90
2019-06-15T11:49:28.649Z,99.90
2019-06-15T11:51:58.548Z,99.90
2019-06-15T11:54:28.259Z,99.90
2019-06-15T11:56:57.959Z,99.90
2019-06-15T11:59:27.664Z,99.90
2019-06-15T12:01:57.587Z,99.90
2019-06-15T12:04:27.275Z,99.90
2019-06-15T12:06:56.964Z,99.90
2019-06-15T12:09:26.654Z,99.90
2019-06-15T12:11:56.357Z,99.90
2019-06-15T12:14:26.136Z,99.90
2019-06-15T12:16:55.895Z,99.90
2019-06-15T12:19:25.686Z,99.90
2019-06-15T12:21:55.679Z,99.90
2019-06-15T12:24:25.452Z,99.90
2019-06-15T12:26:57.384Z,99.90
2019-06-15T12:29:27.963Z,99.90
2019-06-15T12:31:57.865Z,99.90
2019-06-15T12:34:27.741Z,99.90
2019-06-15T12:36:57.499Z,99.90
2019-06-15T12:39:27.350Z,99.90
2019-06-15T12:41:57.079Z,99.90
2019-06-15T12:44:26.890Z,99.90
2019-06-15T12:46:56.679Z,99.90
2019-06-15T12:49:26.485Z,99.90
2019-06-15T12:51:56.324Z,99.90
2019-06-15T12:54:26.023Z,99.90
2019-06-15T12:56:55.787Z,99.90
2019-06-15T12:59:25.619Z,99.90
2019-06-15T13:01:55.433Z,99.90
2019-06-15T13:04:26.236Z,99.90
2019-06-15T13:06:55.951Z,99.90
2019-06-15T13:09:25.643Z,99.90
2019-06-15T13:11:55.332Z,99.90
2019-06-15T13:14:25.076Z,99.90
2019-06-15T13:16:54.776Z,99.90
2019-06-15T13:19:24.483Z,99.90
2019-06-15T13:21:54.264Z,99.90
2019-06-15T13:24:23.994Z,99.90
2019-06-15T13:26:53.727Z,99.90
2019-06-15T13:29:23.476Z,99.90
2019-06-15T13:31:53.231Z,99.90
2019-06-15T13:34:22.940Z,99.90
2019-06-15T13:36:52.647Z,99.90
2019-06-15T13:39:22.373Z,99.90
2019-06-15T13:41:52.340Z,99.90
2019-06-15T13:44:25.283Z,99.90
2019-06-15T13:46:55.124Z,99.90
2019-06-15T13:49:24.819Z,99.90
2019-06-15T13:51:54.518Z,99.90
2019-06-15T13:54:24.192Z,99.90
2019-06-15T13:56:54.083Z,99.90
2019-06-15T13:59:23.820Z,99.90
2019-06-15T14:01:53.722Z,99.90
2019-06-15T14:04:23.438Z,99.90
2019-06-15T14:06:53.144Z,99.90
2019-06-15T14:09:22.858Z,99.90
2019-06-15T14:11:55.110Z,99.90
2019-06-15T14:14:25.593Z,99.90
2019-06-15T14:16:55.336Z,99.90
2019-06-15T14:19:26.723Z,99.90
2019-06-15T14:21:56.460Z,99.90
2019-06-15T14:24:26.279Z,99.90
2019-06-15T14:26:56.157Z,99.90
2019-06-15T14:29:25.857Z,99.90
2019-06-15T14:31:55.580Z,99.90
2019-06-15T14:34:25.531Z,99.90
2019-06-15T14:36:56.012Z,99.90
2019-06-15T14:39:25.870Z,99.90
2019-06-15T14:41:55.599Z,99.90
2019-06-15T14:44:25.303Z,99.90
2019-06-15T14:46:55.088Z,99.90
2019-06-15T14:49:24.907Z,99.90
2019-06-15T14:51:55.745Z,99.90
2019-06-15T14:54:26.516Z,99.90
2019-06-15T14:56:56.687Z,99.90
2019-06-15T14:59:26.603Z,99.90
2019-06-15T15:02:09.572Z,99.90
2019-06-15T15:04:27.826Z,99.90
2019-06-15T15:06:57.527Z,99.90
2019-06-15T15:09:27.802Z,99.90
2019-06-15T15:11:57.643Z,99.90
2019-06-15T15:14:27.391Z,99.90
2019-06-15T15:16:57.185Z,99.90
2019-06-15T15:19:27.391Z,99.90
2019-06-15T15:21:58.319Z,99.90
2019-06-15T15:24:28.043Z,99.90
2019-06-15T15:26:57.881Z,99.90
2019-06-15T15:29:28.033Z,99.90
2019-06-15T15:31:58.020Z,99.90
2019-06-15T15:34:27.983Z,99.90
2019-06-15T15:36:57.763Z,99.90
2019-06-15T15:39:27.526Z,99.90
2019-06-15T15:41:58.650Z,99.90
2019-06-15T15:44:28.436Z,99.90
2019-06-15T15:46:58.283Z,99.90
2019-06-15T15:49:27.991Z,99.90
2019-06-15T15:51:57.863Z,99.90
2019-06-15T15:54:28.550Z,98.00
2019-06-15T15:56:58.255Z,94.30
2019-06-15T15:59:28.043Z,89.60
2019-06-15T16:01:57.839Z,87.80
2019-06-15T16:04:27.639Z,85.30
2019-06-15T16:06:57.431Z,77.90
2019-06-15T16:09:27.513Z,76.80
2019-06-15T16:11:57.628Z,78.50
2019-06-15T16:14:28.367Z,78.50
2019-06-15T16:16:59.072Z,76.20
2019-06-15T16:19:28.885Z,77.10
2019-06-15T16:21:58.621Z,81.60
2019-06-15T16:24:28.468Z,77.50
2019-06-15T16:26:58.175Z,85.20
2019-06-15T16:29:28.483Z,86.00
2019-06-15T16:31:59.374Z,88.20
2019-06-15T16:34:29.103Z,82.40
2019-06-15T16:36:58.944Z,87.00
2019-06-15T16:39:28.740Z,82.40
2019-06-15T16:41:58.557Z,79.60
2019-06-15T16:44:28.328Z,81.70
2019-06-15T16:46:58.064Z,76.90
2019-06-15T16:49:27.838Z,73.20
2019-06-15T16:51:57.584Z,73.50
2019-06-15T16:54:27.277Z,70.70
2019-06-15T16:56:56.987Z,70.70
2019-06-15T16:59:26.712Z,69.90
2019-06-15T17:01:56.426Z,70.80
2019-06-15T17:04:26.842Z,77.70
2019-06-15T17:06:56.811Z,79.50
2019-06-15T17:09:27.615Z,80.90
2019-06-15T17:11:57.642Z,78.20
2019-06-15T17:14:27.467Z,78.40
2019-06-15T17:16:57.158Z,74.90
2019-06-15T17:19:27.087Z,71.40
2019-06-15T17:22:01.064Z,68.80
2019-06-15T17:24:28.362Z,67.20
2019-06-15T17:26:58.139Z,71.10
2019-06-15T17:29:27.831Z,74.20
2019-06-15T17:31:57.550Z,78.40
2019-06-15T17:34:27.251Z,83.70
2019-06-15T17:36:57.454Z,82.60
2019-06-15T17:39:29.677Z,87.50
2019-06-15T17:41:58.900Z,90.10
2019-06-15T17:44:28.622Z,91.60
2019-06-15T17:46:58.328Z,91.70
2019-06-15T17:49:28.121Z,92.00
2019-06-15T17:51:57.833Z,93.30
2019-06-15T17:54:27.563Z,93.10
2019-06-15T17:56:57.315Z,93.30
2019-06-15T17:59:27.043Z,95.10
2019-06-15T18:01:56.726Z,94.50
2019-06-15T18:04:26.440Z,94.40
2019-06-15T18:06:57.637Z,97.00
2019-06-15T18:09:27.339Z,97.60
2019-06-15T18:11:57.250Z,99.30
2019-06-15T18:14:27.099Z,98.60
2019-06-15T18:16:58.276Z,98.20
2019-06-15T18:19:28.203Z,97.60
2019-06-15T18:21:57.956Z,97.50
2019-06-15T18:24:27.678Z,96.90
2019-06-15T18:27:07.071Z,97.50
2019-06-15T18:29:36.975Z,97.90
2019-06-15T18:32:06.848Z,97.20
2019-06-15T18:34:36.870Z,96.10
2019-06-15T18:37:07.691Z,96.50
2019-06-15T18:39:37.515Z,96.10
2019-06-15T18:42:07.802Z,94.90
2019-06-15T18:44:38.601Z,95.60
2019-06-15T18:47:08.299Z,97.00
2019-06-15T18:49:38.003Z,99.10
2019-06-15T18:52:07.727Z,99.90
2019-06-15T18:54:37.427Z,99.90
2019-06-15T18:57:07.503Z,99.90
2019-06-15T18:59:37.365Z,99.90
2019-06-15T19:02:07.478Z,99.90
2019-06-15T19:04:37.175Z,99.90
2019-06-15T19:07:07.039Z,99.90
2019-06-15T19:09:36.758Z,99.90
2019-06-15T19:12:07.102Z,99.90
2019-06-15T19:14:36.975Z,99.90
2019-06-15T19:17:06.642Z,99.90
2019-06-15T19:19:37.689Z,99.90
2019-06-15T19:22:07.723Z,99.90
2019-06-15T19:24:37.463Z,99.90
2019-06-15T19:27:08.258Z,99.90
2019-06-15T19:29:38.073Z,99.90
2019-06-15T19:32:08.224Z,99.90
2019-06-15T19:34:47.069Z,99.90
2019-06-15T19:37:09.681Z,99.90
2019-06-15T19:39:39.443Z,99.90
2019-06-15T19:42:09.177Z,99.90
2019-06-15T19:44:39.857Z,99.90
2019-06-15T19:47:09.622Z,99.90
2019-06-15T19:49:39.334Z,99.90
2019-06-15T19:52:09.169Z,99.90
2019-06-15T19:54:39.003Z,99.90
2019-06-15T19:57:08.686Z,99.90
2019-06-15T19:59:38.395Z,99.90
2019-06-15T20:02:10.854Z,99.90
2019-06-15T20:04:56.357Z,99.90
2019-06-15T20:07:13.291Z,99.90
2019-06-15T20:09:43.051Z,99.90
2019-06-15T20:12:19.129Z,99.90
2019-06-15T20:14:46.264Z,99.90
2019-06-15T20:17:17.514Z,99.90
2019-06-15T20:19:46.957Z,99.90
2019-06-15T20:22:17.579Z,99.90
2019-06-15T20:24:47.631Z,99.90
2019-06-15T20:27:17.420Z,99.90
2019-06-15T20:29:47.654Z,99.90
2019-06-15T20:32:18.810Z,99.90
2019-06-15T20:34:48.591Z,99.90
2019-06-15T20:37:18.272Z,99.90
2019-06-15T20:39:48.115Z,99.90
2019-06-15T20:42:17.800Z,99.90
2019-06-15T20:44:48.579Z,99.90
2019-06-15T20:47:18.351Z,99.90
2019-06-15T20:49:48.115Z,99.90
2019-06-15T20:52:18.087Z,99.90
2019-06-15T20:54:47.862Z,99.90
2019-06-15T20:57:17.569Z,99.90
2019-06-15T20:59:47.622Z,99.90
2019-06-15T21:02:17.595Z,99.90
2019-06-15T21:04:47.377Z,99.90
2019-06-15T21:07:17.096Z,99.90
2019-06-15T21:09:46.909Z,99.90
2019-06-15T21:12:16.726Z,99.90
2019-06-15T21:14:47.083Z,99.90
2019-06-15T21:17:17.186Z,99.90
2019-06-15T21:19:46.914Z,99.90
2019-06-15T21:22:16.867Z,99.90
2019-06-15T21:24:46.636Z,99.90
2019-06-15T21:27:16.712Z,99.90
2019-06-15T21:29:46.543Z,99.90
2019-06-15T21:32:16.236Z,99.90
2019-06-15T21:34:46.465Z,99.90
2019-06-15T21:37:17.634Z,99.90
2019-06-15T21:39:47.475Z,99.90
2019-06-15T21:42:17.258Z,99.90
2019-06-15T21:44:47.092Z,99.90
2019-06-15T21:47:16.761Z,99.90
2019-06-15T21:49:46.838Z,99.90
2019-06-15T21:52:17.969Z,99.90
2019-06-15T21:54:47.734Z,99.90
2019-06-15T21:57:17.491Z,99.90
2019-06-15T21:59:47.429Z,99.90
2019-06-15T22:02:17.351Z,99.90
2019-06-15T22:04:47.143Z,99.90
2019-06-15T22:07:17.054Z,99.90
2019-06-15T22:09:47.010Z,99.90
2019-06-15T22:12:16.788Z,99.90
2019-06-15T22:14:46.711Z,99.90
2019-06-15T22:17:16.870Z,99.90
2019-06-15T22:19:46.761Z,99.90
2019-06-15T22:22:17.528Z,99.90
2019-06-15T22:24:47.214Z,99.90
2019-06-15T22:27:17.182Z,99.90
2019-06-15T22:29:47.393Z,99.90
2019-06-15T22:32:17.219Z,99.90
2019-06-15T22:34:47.208Z,99.90
2019-06-15T22:37:17.460Z,99.90
2019-06-15T22:39:47.451Z,99.90
2019-06-15T22:42:17.254Z,99.90
2019-06-15T22:44:46.965Z,99.90
2019-06-15T22:47:16.985Z,99.90
2019-06-15T22:49:47.763Z,99.90
2019-06-15T22:52:17.518Z,99.90
2019-06-15T22:54:47.295Z,99.90
2019-06-15T22:57:17.019Z,99.90
2019-06-15T22:59:46.700Z,99.90
2019-06-15T23:02:16.859Z,99.90
2019-06-15T23:04:47.240Z,99.90
2019-06-15T23:07:17.123Z,99.90
2019-06-15T23:09:46.927Z,99.90
2019-06-15T23:12:16.668Z,99.90
2019-06-15T23:14:46.698Z,99.90
2019-06-15T23:17:17.647Z,99.90
2019-06-15T23:19:47.342Z,99.90
2019-06-15T23:22:18.220Z,99.90
2019-06-15T23:24:47.931Z,99.90
2019-06-15T23:27:17.643Z,99.90
2019-06-15T23:29:47.343Z,99.90
2019-06-15T23:32:17.145Z,99.90
2019-06-15T23:34:47.807Z,99.90
2019-06-15T23:37:19.538Z,99.90
2019-06-15T23:40:07.468Z,99.90
2019-06-15T23:42:37.515Z,99.90
2019-06-15T23:45:07.388Z,99.90
2019-06-15T23:47:37.162Z,99.90
2019-06-15T23:50:07.710Z,99.90
2019-06-15T23:52:37.543Z,99.90
2019-06-15T23:55:07.705Z,99.90
2019-06-15T23:57:37.512Z,99.90
